sensor_id;sensor_type;location;lat;lon;timestamp;pressure;altitude;pressure_sealevel;temperature
69590;BMP180;56792;50.644;17.984;2023-03-05T14:10:57;98869.40;;;3.40
69590;BMP180;56792;50.644;17.984;2023-03-05T14:13:33;98871.60;;;3.48
69590;BMP180;56792;50.644;17.984;2023-03-05T14:16:12;98866.60;;;3.50
69590;BMP180;56792;50.644;17.984;2023-03-05T14:19:00;98863.40;;;3.50
69590;BMP180;56792;50.644;17.984;2023-03-05T14:21:52;98858.00;;;3.40
69590;BMP180;56792;50.644;17.984;2023-03-05T14:24:29;98857.00;;;3.30
69590;BMP180;56792;50.644;17.984;2023-03-05T14:27:07;98857.60;;;3.30
69590;BMP180;56792;50.644;17.984;2023-03-05T14:29:49;98861.60;;;3.24
69590;BMP180;56792;50.644;17.984;2023-03-05T14:32:31;98864.40;;;3.28
69590;BMP180;56792;50.644;17.984;2023-03-05T14:35:17;98865.20;;;3.20
69590;BMP180;56792;50.644;17.984;2023-03-05T14:37:56;98865.40;;;3.12
69590;BMP180;56792;50.644;17.984;2023-03-05T14:40:35;98856.80;;;3.10
69590;BMP180;56792;50.644;17.984;2023-03-05T14:43:11;98857.60;;;3.00
69590;BMP180;56792;50.644;17.984;2023-03-05T14:45:45;98862.40;;;3.00
69590;BMP180;56792;50.644;17.984;2023-03-05T14:48:21;98858.60;;;3.00
69590;BMP180;56792;50.644;17.984;2023-03-05T14:51:01;98856.40;;;2.92
69590;BMP180;56792;50.644;17.984;2023-03-05T14:53:41;98849.00;;;2.90
69590;BMP180;56792;50.644;17.984;2023-03-05T14:56:24;98852.80;;;2.90
69590;BMP180;56792;50.644;17.984;2023-03-05T14:58:59;98854.80;;;2.90
69590;BMP180;56792;50.644;17.984;2023-03-05T15:01:35;98854.40;;;2.90
69590;BMP180;56792;50.644;17.984;2023-03-05T15:04:11;98854.40;;;2.98
69590;BMP180;56792;50.644;17.984;2023-03-05T15:06:51;98856.40;;;2.98
69590;BMP180;56792;50.644;17.984;2023-03-05T15:09:25;98862.00;;;2.90
69590;BMP180;56792;50.644;17.984;2023-03-05T15:12:01;98860.40;;;2.90
69590;BMP180;56792;50.644;17.984;2023-03-05T15:14:36;98875.00;;;2.90
69590;BMP180;56792;50.644;17.984;2023-03-05T15:17:18;98883.40;;;2.84
69590;BMP180;56792;50.644;17.984;2023-03-05T15:20:04;98900.60;;;2.72
69590;BMP180;56792;50.644;17.984;2023-03-05T15:22:42;98907.80;;;2.60
69590;BMP180;56792;50.644;17.984;2023-03-05T15:25:22;98912.20;;;2.50
69590;BMP180;56792;50.644;17.984;2023-03-05T15:28:04;98905.80;;;2.26
69590;BMP180;56792;50.644;17.984;2023-03-05T15:30:45;98908.80;;;2.10
69590;BMP180;56792;50.644;17.984;2023-03-05T15:33:26;98901.00;;;1.90
69590;BMP180;56792;50.644;17.984;2023-03-05T15:36:09;98895.20;;;1.78
69590;BMP180;56792;50.644;17.984;2023-03-05T15:38:50;98893.40;;;1.70
69590;BMP180;56792;50.644;17.984;2023-03-05T15:41:23;98895.40;;;1.62
69590;BMP180;56792;50.644;17.984;2023-03-05T15:43:58;98891.40;;;1.60
69590;BMP180;56792;50.644;17.984;2023-03-05T15:46:40;98889.60;;;1.50
69590;BMP180;56792;50.644;17.984;2023-03-05T15:49:17;98894.20;;;1.50
69590;BMP180;56792;50.644;17.984;2023-03-05T15:51:55;98894.40;;;1.42
69590;BMP180;56792;50.644;17.984;2023-03-05T15:54:30;98892.80;;;1.40
69590;BMP180;56792;50.644;17.984;2023-03-05T15:57:13;98890.80;;;1.32
69590;BMP180;56792;50.644;17.984;2023-03-05T15:59:49;98894.00;;;1.30
69590;BMP180;56792;50.644;17.984;2023-03-05T16:02:25;98884.00;;;1.20
69590;BMP180;56792;50.644;17.984;2023-03-05T16:05:01;98888.80;;;1.12
69590;BMP180;56792;50.644;17.984;2023-03-05T16:07:43;98886.40;;;1.10
69590;BMP180;56792;50.644;17.984;2023-03-05T16:10:24;98887.80;;;1.06
69590;BMP180;56792;50.644;17.984;2023-03-05T16:13:05;98888.40;;;1.00
69590;BMP180;56792;50.644;17.984;2023-03-05T16:15:42;98888.60;;;1.00
69590;BMP180;56792;50.644;17.984;2023-03-05T16:18:19;98886.20;;;0.94
69590;BMP180;56792;50.644;17.984;2023-03-05T16:20:56;98894.20;;;0.90
69590;BMP180;56792;50.644;17.984;2023-03-05T16:23:34;98886.60;;;0.80
69590;BMP180;56792;50.644;17.984;2023-03-05T16:26:11;98886.00;;;0.74
69590;BMP180;56792;50.644;17.984;2023-03-05T16:28:48;98886.60;;;0.70
69590;BMP180;56792;50.644;17.984;2023-03-05T16:31:25;98885.00;;;0.70
69590;BMP180;56792;50.644;17.984;2023-03-05T16:34:03;98889.20;;;0.70
69590;BMP180;56792;50.644;17.984;2023-03-05T16:36:40;98888.00;;;0.70
69590;BMP180;56792;50.644;17.984;2023-03-05T16:39:20;98887.60;;;0.70
69590;BMP180;56792;50.644;17.984;2023-03-05T16:42:00;98886.20;;;0.60
69590;BMP180;56792;50.644;17.984;2023-03-05T16:44:37;98881.40;;;0.60
69590;BMP180;56792;50.644;17.984;2023-03-05T16:47:14;98885.00;;;0.60
69590;BMP180;56792;50.644;17.984;2023-03-05T16:49:50;98888.20;;;0.60
69590;BMP180;56792;50.644;17.984;2023-03-05T16:52:26;98884.80;;;0.54
69590;BMP180;56792;50.644;17.984;2023-03-05T16:55:01;98884.80;;;0.60
69590;BMP180;56792;50.644;17.984;2023-03-05T16:57:38;98881.60;;;0.60
69590;BMP180;56792;50.644;17.984;2023-03-05T17:00:18;98879.20;;;0.70
69590;BMP180;56792;50.644;17.984;2023-03-05T17:02:57;98884.80;;;0.70
69590;BMP180;56792;50.644;17.984;2023-03-05T17:05:33;98889.00;;;0.60
69590;BMP180;56792;50.644;17.984;2023-03-05T17:08:12;98895.80;;;0.60
69590;BMP180;56792;50.644;17.984;2023-03-05T17:10:47;98887.00;;;0.60
69590;BMP180;56792;50.644;17.984;2023-03-05T17:13:26;98888.40;;;0.60
69590;BMP180;56792;50.644;17.984;2023-03-05T17:18:49;98884.60;;;0.50
69590;BMP180;56792;50.644;17.984;2023-03-05T17:21:24;98888.00;;;0.50
69590;BMP180;56792;50.644;17.984;2023-03-05T17:24:02;98896.20;;;0.50
69590;BMP180;56792;50.644;17.984;2023-03-05T17:26:38;98888.60;;;0.50
69590;BMP180;56792;50.644;17.984;2023-03-05T17:29:14;98888.00;;;0.50
69590;BMP180;56792;50.644;17.984;2023-03-05T17:31:53;98888.00;;;0.46
69590;BMP180;56792;50.644;17.984;2023-03-05T17:34:38;98877.40;;;0.50
69590;BMP180;56792;50.644;17.984;2023-03-05T17:37:20;98884.80;;;0.50
69590;BMP180;56792;50.644;17.984;2023-03-05T17:39:56;98887.20;;;0.50
69590;BMP180;56792;50.644;17.984;2023-03-05T17:42:37;98882.00;;;0.40
69590;BMP180;56792;50.644;17.984;2023-03-05T17:45:17;98877.00;;;0.40
69590;BMP180;56792;50.644;17.984;2023-03-05T17:47:56;98877.20;;;0.40
69590;BMP180;56792;50.644;17.984;2023-03-05T17:50:37;98874.80;;;0.40
69590;BMP180;56792;50.644;17.984;2023-03-05T17:53:14;98874.00;;;0.40
69590;BMP180;56792;50.644;17.984;2023-03-05T17:55:50;98867.00;;;0.40
69590;BMP180;56792;50.644;17.984;2023-03-05T17:58:29;98870.80;;;0.40
69590;BMP180;56792;50.644;17.984;2023-03-05T18:03:59;98866.00;;;0.30
69590;BMP180;56792;50.644;17.984;2023-03-05T18:06:35;98860.80;;;0.40
69590;BMP180;56792;50.644;17.984;2023-03-05T18:09:11;98862.40;;;0.32
69590;BMP180;56792;50.644;17.984;2023-03-05T18:11:55;98856.80;;;0.30
69590;BMP180;56792;50.644;17.984;2023-03-05T18:14:31;98861.00;;;0.30
69590;BMP180;56792;50.644;17.984;2023-03-05T18:17:06;98859.60;;;0.30
69590;BMP180;56792;50.644;17.984;2023-03-05T18:19:41;98862.00;;;0.20
69590;BMP180;56792;50.644;17.984;2023-03-05T18:22:16;98861.40;;;0.26
69590;BMP180;56792;50.644;17.984;2023-03-05T18:24:51;98860.40;;;0.24
69590;BMP180;56792;50.644;17.984;2023-03-05T18:27:32;98857.00;;;0.20
69590;BMP180;56792;50.644;17.984;2023-03-05T18:30:10;98859.40;;;0.20
69590;BMP180;56792;50.644;17.984;2023-03-05T18:32:49;98857.20;;;0.28
69590;BMP180;56792;50.644;17.984;2023-03-05T18:35:24;98858.40;;;0.30
69590;BMP180;56792;50.644;17.984;2023-03-05T18:38:03;98860.40;;;0.30
69590;BMP180;56792;50.644;17.984;2023-03-05T18:40:42;98859.80;;;0.30
69590;BMP180;56792;50.644;17.984;2023-03-05T18:43:19;98859.00;;;0.30
69590;BMP180;56792;50.644;17.984;2023-03-05T18:45:54;98859.00;;;0.30
69590;BMP180;56792;50.644;17.984;2023-03-05T18:48:35;98857.60;;;0.30
69590;BMP180;56792;50.644;17.984;2023-03-05T18:51:28;98858.00;;;0.30
69590;BMP180;56792;50.644;17.984;2023-03-05T18:54:03;98858.40;;;0.24
69590;BMP180;56792;50.644;17.984;2023-03-05T18:56:44;98863.40;;;0.30
69590;BMP180;56792;50.644;17.984;2023-03-05T18:59:36;98859.80;;;0.30
69590;BMP180;56792;50.644;17.984;2023-03-05T19:02:18;98862.20;;;0.30
69590;BMP180;56792;50.644;17.984;2023-03-05T19:04:58;98863.20;;;0.30
69590;BMP180;56792;50.644;17.984;2023-03-05T19:07:35;98862.80;;;0.30
69590;BMP180;56792;50.644;17.984;2023-03-05T19:10:20;98866.00;;;0.30
69590;BMP180;56792;50.644;17.984;2023-03-05T19:12:58;98859.80;;;0.30
69590;BMP180;56792;50.644;17.984;2023-03-05T19:15:49;98859.40;;;0.40
69590;BMP180;56792;50.644;17.984;2023-03-05T19:18:26;98863.60;;;0.40
69590;BMP180;56792;50.644;17.984;2023-03-05T19:21:11;98870.80;;;0.40
69590;BMP180;56792;50.644;17.984;2023-03-05T19:23:49;98872.20;;;0.40
69590;BMP180;56792;50.644;17.984;2023-03-05T19:26:31;98871.80;;;0.40
69590;BMP180;56792;50.644;17.984;2023-03-05T19:29:09;98871.60;;;0.40
69590;BMP180;56792;50.644;17.984;2023-03-05T19:31:47;98875.60;;;0.40
69590;BMP180;56792;50.644;17.984;2023-03-05T19:34:25;98872.00;;;0.40
69590;BMP180;56792;50.644;17.984;2023-03-05T19:37:07;98867.00;;;0.40
69590;BMP180;56792;50.644;17.984;2023-03-05T19:39:46;98861.40;;;0.40
69590;BMP180;56792;50.644;17.984;2023-03-05T19:42:29;98865.80;;;0.40
69590;BMP180;56792;50.644;17.984;2023-03-05T19:45:14;98857.40;;;0.38
69590;BMP180;56792;50.644;17.984;2023-03-05T19:48:06;98855.40;;;0.40
69590;BMP180;56792;50.644;17.984;2023-03-05T19:50:49;98852.40;;;0.34
69590;BMP180;56792;50.644;17.984;2023-03-05T19:53:37;98854.00;;;0.32
69590;BMP180;56792;50.644;17.984;2023-03-05T19:56:18;98856.20;;;0.30
69590;BMP180;56792;50.644;17.984;2023-03-05T19:58:57;98850.00;;;0.30
69590;BMP180;56792;50.644;17.984;2023-03-05T20:01:40;98845.00;;;0.30
69590;BMP180;56792;50.644;17.984;2023-03-05T20:04:24;98844.20;;;0.30
69590;BMP180;56792;50.644;17.984;2023-03-05T20:07:16;98845.80;;;0.30
69590;BMP180;56792;50.644;17.984;2023-03-05T20:10:04;98841.20;;;0.28
69590;BMP180;56792;50.644;17.984;2023-03-05T20:12:45;98840.40;;;0.20
69590;BMP180;56792;50.644;17.984;2023-03-05T20:15:25;98837.20;;;0.20
69590;BMP180;56792;50.644;17.984;2023-03-05T20:18:05;98841.40;;;0.20
69590;BMP180;56792;50.644;17.984;2023-03-05T20:20:46;98839.00;;;0.20
69590;BMP180;56792;50.644;17.984;2023-03-05T20:23:29;98838.60;;;0.16
69590;BMP180;56792;50.644;17.984;2023-03-05T20:26:09;98832.00;;;0.14
69590;BMP180;56792;50.644;17.984;2023-03-05T20:28:53;98828.60;;;0.18
69590;BMP180;56792;50.644;17.984;2023-03-05T20:31:29;98827.00;;;0.20
69590;BMP180;56792;50.644;17.984;2023-03-05T20:34:07;98822.80;;;0.10
69590;BMP180;56792;50.644;17.984;2023-03-05T20:36:42;98825.00;;;0.10
69590;BMP180;56792;50.644;17.984;2023-03-05T20:39:20;98816.40;;;0.00
69590;BMP180;56792;50.644;17.984;2023-03-05T20:41:56;98811.60;;;0.00
69590;BMP180;56792;50.644;17.984;2023-03-05T20:44:32;98812.60;;;-0.10
69590;BMP180;56792;50.644;17.984;2023-03-05T20:47:17;98805.00;;;-0.10
69590;BMP180;56792;50.644;17.984;2023-03-05T20:50:03;98806.00;;;-0.10
69590;BMP180;56792;50.644;17.984;2023-03-05T20:52:45;98807.00;;;-0.10
69590;BMP180;56792;50.644;17.984;2023-03-05T20:55:23;98811.60;;;-0.14
69590;BMP180;56792;50.644;17.984;2023-03-05T20:58:02;98811.20;;;-0.20
69590;BMP180;56792;50.644;17.984;2023-03-05T21:00:39;98809.00;;;-0.20
69590;BMP180;56792;50.644;17.984;2023-03-05T21:03:15;98805.80;;;-0.20
69590;BMP180;56792;50.644;17.984;2023-03-05T21:05:51;98800.40;;;-0.20
69590;BMP180;56792;50.644;17.984;2023-03-05T21:08:31;98803.80;;;-0.22
69590;BMP180;56792;50.644;17.984;2023-03-05T21:11:10;98801.60;;;-0.30
69590;BMP180;56792;50.644;17.984;2023-03-05T21:13:46;98800.20;;;-0.30
69590;BMP180;56792;50.644;17.984;2023-03-05T21:16:25;98802.20;;;-0.30
69590;BMP180;56792;50.644;17.984;2023-03-05T21:19:01;98805.20;;;-0.32
69590;BMP180;56792;50.644;17.984;2023-03-05T21:21:36;98802.60;;;-0.40
69590;BMP180;56792;50.644;17.984;2023-03-05T21:24:13;98806.40;;;-0.40
69590;BMP180;56792;50.644;17.984;2023-03-05T21:26:54;98805.80;;;-0.40
69590;BMP180;56792;50.644;17.984;2023-03-05T21:29:28;98807.20;;;-0.40
69590;BMP180;56792;50.644;17.984;2023-03-05T21:32:10;98805.80;;;-0.40
69590;BMP180;56792;50.644;17.984;2023-03-05T21:34:45;98802.60;;;-0.40
69590;BMP180;56792;50.644;17.984;2023-03-05T21:37:20;98800.60;;;-0.40
69590;BMP180;56792;50.644;17.984;2023-03-05T21:39:53;98802.00;;;-0.40
69590;BMP180;56792;50.644;17.984;2023-03-05T21:42:27;98800.00;;;-0.40
69590;BMP180;56792;50.644;17.984;2023-03-05T21:45:04;98802.40;;;-0.40
69590;BMP180;56792;50.644;17.984;2023-03-05T21:47:38;98799.20;;;-0.40
69590;BMP180;56792;50.644;17.984;2023-03-05T21:50:14;98800.00;;;-0.40
69590;BMP180;56792;50.644;17.984;2023-03-05T21:52:48;98799.60;;;-0.36
69590;BMP180;56792;50.644;17.984;2023-03-05T21:55:23;98806.60;;;-0.32
69590;BMP180;56792;50.644;17.984;2023-03-05T21:58:04;98802.60;;;-0.36
69590;BMP180;56792;50.644;17.984;2023-03-05T22:00:37;98802.20;;;-0.40
69590;BMP180;56792;50.644;17.984;2023-03-05T22:03:10;98804.00;;;-0.40
69590;BMP180;56792;50.644;17.984;2023-03-05T22:05:46;98802.00;;;-0.40
69590;BMP180;56792;50.644;17.984;2023-03-05T22:08:21;98799.20;;;-0.40
69590;BMP180;56792;50.644;17.984;2023-03-05T22:10:54;98803.20;;;-0.40
69590;BMP180;56792;50.644;17.984;2023-03-05T22:13:27;98800.20;;;-0.40
69590;BMP180;56792;50.644;17.984;2023-03-05T22:16:00;98796.20;;;-0.40
69590;BMP180;56792;50.644;17.984;2023-03-05T22:18:33;98797.40;;;-0.40
69590;BMP180;56792;50.644;17.984;2023-03-05T22:21:18;98785.60;;;-0.40
69590;BMP180;56792;50.644;17.984;2023-03-05T22:23:51;98778.80;;;-0.44
69590;BMP180;56792;50.644;17.984;2023-03-05T22:26:36;98773.20;;;-0.40
69590;BMP180;56792;50.644;17.984;2023-03-05T22:29:09;98769.40;;;-0.40
69590;BMP180;56792;50.644;17.984;2023-03-05T22:31:43;98772.20;;;-0.40
69590;BMP180;56792;50.644;17.984;2023-03-05T22:34:16;98771.40;;;-0.40
69590;BMP180;56792;50.644;17.984;2023-03-05T22:36:50;98769.20;;;-0.48
69590;BMP180;56792;50.644;17.984;2023-03-05T22:39:24;98770.40;;;-0.50
69590;BMP180;56792;50.644;17.984;2023-03-05T22:41:57;98768.40;;;-0.50
69590;BMP180;56792;50.644;17.984;2023-03-05T22:44:30;98763.60;;;-0.52
69590;BMP180;56792;50.644;17.984;2023-03-05T22:47:04;98762.80;;;-0.54
69590;BMP180;56792;50.644;17.984;2023-03-05T22:49:36;98763.60;;;-0.60
69590;BMP180;56792;50.644;17.984;2023-03-05T22:52:10;98764.40;;;-0.60
69590;BMP180;56792;50.644;17.984;2023-03-05T22:54:43;98757.60;;;-0.60
69590;BMP180;56792;50.644;17.984;2023-03-05T22:57:16;98759.40;;;-0.60
69590;BMP180;56792;50.644;17.984;2023-03-05T22:59:48;98755.00;;;-0.62
69590;BMP180;56792;50.644;17.984;2023-03-05T23:02:21;98755.80;;;-0.70
69590;BMP180;56792;50.644;17.984;2023-03-05T23:04:54;98756.20;;;-0.70
69590;BMP180;56792;50.644;17.984;2023-03-05T23:07:33;98757.60;;;-0.70
69590;BMP180;56792;50.644;17.984;2023-03-05T23:10:12;98753.20;;;-0.68
69590;BMP180;56792;50.644;17.984;2023-03-05T23:12:50;98755.80;;;-0.60
69590;BMP180;56792;50.644;17.984;2023-03-05T23:15:26;98757.40;;;-0.60
69590;BMP180;56792;50.644;17.984;2023-03-05T23:17:59;98756.40;;;-0.60
69590;BMP180;56792;50.644;17.984;2023-03-05T23:20:35;98757.00;;;-0.60
69590;BMP180;56792;50.644;17.984;2023-03-05T23:23:08;98753.80;;;-0.60
69590;BMP180;56792;50.644;17.984;2023-03-05T23:25:41;98748.80;;;-0.60
69590;BMP180;56792;50.644;17.984;2023-03-05T23:28:14;98754.20;;;-0.60
69590;BMP180;56792;50.644;17.984;2023-03-05T23:30:46;98750.80;;;-0.58
69590;BMP180;56792;50.644;17.984;2023-03-05T23:33:20;98748.40;;;-0.60
69590;BMP180;56792;50.644;17.984;2023-03-05T23:35:56;98750.80;;;-0.60
69590;BMP180;56792;50.644;17.984;2023-03-05T23:38:30;98748.60;;;-0.60
69590;BMP180;56792;50.644;17.984;2023-03-05T23:41:08;98750.80;;;-0.60
69590;BMP180;56792;50.644;17.984;2023-03-05T23:43:40;98754.00;;;-0.60
69590;BMP180;56792;50.644;17.984;2023-03-05T23:46:14;98755.20;;;-0.64
69590;BMP180;56792;50.644;17.984;2023-03-05T23:48:47;98753.80;;;-0.66
69590;BMP180;56792;50.644;17.984;2023-03-05T23:51:19;98752.00;;;-0.66
69590;BMP180;56792;50.644;17.984;2023-03-05T23:53:52;98748.40;;;-0.70
69590;BMP180;56792;50.644;17.984;2023-03-05T23:56:25;98749.20;;;-0.64
69590;BMP180;56792;50.644;17.984;2023-03-05T23:58:58;98747.00;;;-0.60
